createdAt,value
2019-03-08T00:00:35.351Z,996.07
2019-03-08T00:01:35.330Z,996.14
2019-03-08T00:02:35.310Z,996.04
2019-03-08T00:03:35.291Z,996.06
2019-03-08T00:04:35.263Z,996.07
2019-03-08T00:05:35.247Z,996.08
2019-03-08T00:06:35.221Z,996.04
2019-03-08T00:07:35.199Z,996.04
2019-03-08T00:08:35.181Z,996.07
2019-03-08T00:09:35.158Z,996.02
2019-03-08T00:10:35.138Z,996.05
2019-03-08T00:11:35.115Z,996.02
2019-03-08T00:12:35.092Z,995.96
2019-03-08T00:13:35.082Z,995.99
2019-03-08T00:14:35.062Z,995.97
2019-03-08T00:15:35.031Z,995.91
2019-03-08T00:16:35.015Z,995.93
2019-03-08T00:17:34.996Z,995.96
2019-03-08T00:18:34.965Z,995.96
2019-03-08T00:19:34.951Z,995.86
2019-03-08T00:20:34.927Z,995.86
2019-03-08T00:21:34.908Z,995.86
2019-03-08T00:22:34.887Z,995.85
2019-03-08T00:23:34.866Z,995.86
2019-03-08T00:24:34.846Z,995.87
2019-03-08T00:25:34.824Z,995.83
2019-03-08T00:26:34.808Z,995.94
2019-03-08T00:27:34.788Z,995.83
2019-03-08T00:28:34.758Z,995.78
2019-03-08T00:29:34.738Z,995.91
2019-03-08T00:30:34.722Z,995.94
2019-03-08T00:31:34.698Z,995.82
2019-03-08T00:32:34.673Z,995.81
2019-03-08T00:33:34.652Z,996.04
2019-03-08T00:34:34.633Z,995.82
2019-03-08T00:35:34.614Z,995.90
2019-03-08T00:36:34.591Z,995.92
2019-03-08T00:37:34.573Z,995.86
2019-03-08T00:38:34.551Z,995.91
2019-03-08T00:39:34.526Z,995.85
2019-03-08T00:40:34.506Z,995.81
2019-03-08T00:41:34.482Z,995.87
2019-03-08T00:42:34.464Z,995.84
2019-03-08T00:43:34.445Z,995.78
2019-03-08T00:44:34.427Z,995.83
2019-03-08T00:45:34.400Z,995.81
2019-03-08T00:46:34.376Z,995.84
2019-03-08T00:47:34.358Z,995.78
2019-03-08T00:48:34.350Z,995.78
2019-03-08T00:49:34.318Z,995.77
2019-03-08T00:50:34.286Z,995.77
2019-03-08T00:51:34.275Z,995.74
2019-03-08T00:52:34.257Z,995.78
2019-03-08T00:53:34.238Z,995.79
2019-03-08T00:54:34.211Z,995.78
2019-03-08T00:55:34.192Z,995.74
2019-03-08T00:56:34.171Z,995.79
2019-03-08T00:57:34.147Z,995.75
2019-03-08T00:58:34.121Z,995.79
2019-03-08T00:59:34.102Z,995.74
2019-03-08T01:00:34.083Z,995.80
2019-03-08T01:01:34.056Z,995.75
2019-03-08T01:02:35.808Z,995.75
2019-03-08T01:03:34.018Z,995.80
2019-03-08T01:04:33.994Z,995.80
2019-03-08T01:05:33.972Z,995.81
2019-03-08T01:06:33.954Z,995.69
2019-03-08T01:07:33.938Z,995.81
2019-03-08T01:08:34.069Z,995.78
2019-03-08T01:09:33.888Z,995.70
2019-03-08T01:10:33.868Z,995.73
2019-03-08T01:11:33.850Z,995.92
2019-03-08T01:12:33.826Z,995.72
2019-03-08T01:13:33.808Z,995.72
2019-03-08T01:14:33.786Z,995.67
2019-03-08T01:15:33.765Z,995.70
2019-03-08T01:16:33.741Z,995.62
2019-03-08T01:17:33.720Z,995.52
2019-03-08T01:18:33.702Z,995.53
2019-03-08T01:19:33.679Z,995.54
2019-03-08T01:20:33.655Z,995.53
2019-03-08T01:21:33.636Z,995.56
2019-03-08T01:22:33.616Z,995.55
2019-03-08T01:23:33.593Z,995.55
2019-03-08T01:24:33.570Z,995.60
2019-03-08T01:25:33.551Z,995.62
2019-03-08T01:26:33.525Z,995.60
2019-03-08T01:27:33.508Z,995.53
2019-03-08T01:28:33.484Z,995.53
2019-03-08T01:29:33.460Z,995.59
2019-03-08T01:30:33.440Z,995.52
2019-03-08T01:31:33.431Z,995.49
2019-03-08T01:32:33.402Z,995.47
2019-03-08T01:33:33.379Z,995.78
2019-03-08T01:34:33.359Z,995.45
2019-03-08T01:35:33.337Z,995.45
2019-03-08T01:36:33.317Z,995.45
2019-03-08T01:37:33.291Z,995.51
2019-03-08T01:38:33.284Z,995.39
2019-03-08T01:39:33.258Z,995.43
2019-03-08T01:40:33.228Z,995.42
2019-03-08T01:41:33.209Z,995.44
2019-03-08T01:42:33.184Z,995.39
2019-03-08T01:43:33.168Z,995.44
2019-03-08T01:44:33.919Z,995.42
2019-03-08T01:45:33.134Z,995.53
2019-03-08T01:46:33.099Z,995.31
2019-03-08T01:47:33.078Z,995.46
2019-03-08T01:48:33.063Z,995.29
2019-03-08T01:49:33.041Z,995.39
2019-03-08T01:50:33.021Z,995.35
2019-03-08T01:51:32.995Z,995.32
2019-03-08T01:52:32.975Z,995.37
2019-03-08T01:53:32.957Z,995.36
2019-03-08T01:54:32.932Z,995.31
2019-03-08T01:55:32.911Z,995.34
2019-03-08T01:56:32.892Z,995.26
2019-03-08T01:57:32.887Z,995.23
2019-03-08T01:58:32.867Z,995.31
2019-03-08T01:59:32.832Z,995.20
2019-03-08T02:00:32.803Z,995.29
2019-03-08T02:01:32.785Z,995.24
2019-03-08T02:02:32.762Z,995.29
2019-03-08T02:03:32.743Z,995.35
2019-03-08T02:04:32.725Z,995.14
2019-03-08T02:05:32.697Z,995.14
2019-03-08T02:06:32.679Z,995.08
2019-03-08T02:07:33.291Z,995.27
2019-03-08T02:08:32.639Z,995.18
2019-03-08T02:09:32.615Z,995.16
2019-03-08T02:10:32.591Z,995.17
2019-03-08T02:11:32.567Z,995.18
2019-03-08T02:12:32.545Z,995.22
2019-03-08T02:13:32.523Z,995.32
2019-03-08T02:14:32.503Z,995.24
2019-03-08T02:15:32.492Z,995.32
2019-03-08T02:16:32.465Z,995.26
2019-03-08T02:17:32.441Z,995.09
2019-03-08T02:18:32.422Z,995.09
2019-03-08T02:19:32.400Z,995.06
2019-03-08T02:20:32.379Z,995.17
2019-03-08T02:21:32.351Z,995.31
2019-03-08T02:22:32.332Z,995.07
2019-03-08T02:23:32.309Z,995.09
2019-03-08T02:24:32.295Z,995.02
2019-03-08T02:25:32.271Z,995.08
2019-03-08T02:26:32.251Z,995.07
2019-03-08T02:27:32.227Z,995.00
2019-03-08T02:28:32.209Z,995.09
2019-03-08T02:29:32.187Z,994.95
2019-03-08T02:30:32.164Z,994.78
2019-03-08T02:31:32.146Z,994.94
2019-03-08T02:32:32.120Z,994.85
2019-03-08T02:33:32.100Z,994.89
2019-03-08T02:34:32.075Z,994.85
2019-03-08T02:35:32.059Z,994.80
2019-03-08T02:36:32.040Z,994.81
2019-03-08T02:37:32.016Z,994.72
2019-03-08T02:38:31.999Z,994.91
2019-03-08T02:39:31.969Z,994.95
2019-03-08T02:40:31.949Z,994.80
2019-03-08T02:41:31.928Z,994.82
2019-03-08T02:42:31.905Z,994.76
2019-03-08T02:43:31.887Z,994.78
2019-03-08T02:44:31.863Z,994.73
2019-03-08T02:45:31.840Z,994.80
2019-03-08T02:46:31.819Z,994.70
2019-03-08T02:47:31.805Z,994.84
2019-03-08T02:48:31.780Z,994.61
2019-03-08T02:49:31.757Z,994.72
2019-03-08T02:50:31.735Z,994.95
2019-03-08T02:51:31.717Z,994.73
2019-03-08T02:52:31.710Z,994.79
2019-03-08T02:53:31.674Z,995.00
2019-03-08T02:54:31.649Z,994.67
2019-03-08T02:55:31.624Z,994.96
2019-03-08T02:56:31.608Z,994.73
2019-03-08T02:57:31.589Z,995.03
2019-03-08T02:58:31.574Z,994.75
2019-03-08T02:59:31.542Z,994.91
2019-03-08T03:00:31.520Z,995.08
2019-03-08T03:01:31.502Z,994.77
2019-03-08T03:02:31.476Z,994.92
2019-03-08T03:03:31.455Z,994.87
2019-03-08T03:04:31.437Z,994.89
2019-03-08T03:05:31.414Z,995.07
2019-03-08T03:06:31.392Z,994.86
2019-03-08T03:07:31.374Z,994.82
2019-03-08T03:08:31.351Z,994.85
2019-03-08T03:09:31.329Z,994.86
2019-03-08T03:10:31.308Z,994.79
2019-03-08T03:11:31.286Z,994.82
2019-03-08T03:12:31.262Z,994.77
2019-03-08T03:13:31.245Z,994.74
2019-03-08T03:14:31.218Z,994.83
2019-03-08T03:15:31.198Z,995.06
2019-03-08T03:16:31.182Z,995.05
2019-03-08T03:17:31.160Z,994.81
2019-03-08T03:18:31.135Z,994.74
2019-03-08T03:19:31.112Z,994.74
2019-03-08T03:20:31.101Z,994.73
2019-03-08T03:21:31.072Z,994.74
2019-03-08T03:22:31.054Z,994.74
2019-03-08T03:23:31.029Z,994.75
2019-03-08T03:24:31.012Z,994.80
2019-03-08T03:25:30.986Z,994.82
2019-03-08T03:26:30.962Z,994.68
2019-03-08T03:27:30.944Z,994.66
2019-03-08T03:28:30.922Z,994.70
2019-03-08T03:29:30.899Z,994.68
2019-03-08T03:30:30.883Z,994.77
2019-03-08T03:31:30.860Z,994.69
2019-03-08T03:32:30.837Z,994.65
2019-03-08T03:33:30.832Z,994.70
2019-03-08T03:34:30.797Z,994.66
2019-03-08T03:35:30.769Z,994.89
2019-03-08T03:36:30.754Z,994.63
2019-03-08T03:37:30.728Z,994.64
2019-03-08T03:38:30.710Z,994.59
2019-03-08T03:39:30.684Z,994.58
2019-03-08T03:40:30.669Z,994.67
2019-03-08T03:41:30.643Z,994.70
2019-03-08T03:42:30.631Z,994.62
2019-03-08T03:43:30.604Z,994.63
2019-03-08T03:44:30.578Z,994.71
2019-03-08T03:45:30.563Z,994.59
2019-03-08T03:46:30.536Z,994.67
2019-03-08T03:47:30.514Z,994.54
2019-03-08T03:48:30.497Z,994.66
2019-03-08T03:49:30.470Z,994.52
2019-03-08T03:50:30.450Z,994.53
2019-03-08T03:51:30.432Z,994.55
2019-03-08T03:52:30.411Z,994.59
2019-03-08T03:53:30.387Z,994.49
2019-03-08T03:54:30.366Z,994.61
2019-03-08T03:55:30.342Z,994.55
2019-03-08T03:56:30.323Z,994.46
2019-03-08T03:57:30.304Z,994.53
2019-03-08T03:58:30.283Z,994.47
2019-03-08T03:59:30.258Z,994.49
2019-03-08T04:00:30.240Z,994.43
2019-03-08T04:01:30.221Z,994.43
2019-03-08T04:02:30.204Z,994.50
2019-03-08T04:03:30.179Z,994.49
2019-03-08T04:04:30.153Z,994.30
2019-03-08T04:05:30.131Z,994.40
2019-03-08T04:06:30.111Z,994.67
2019-03-08T04:07:30.091Z,994.32
2019-03-08T04:08:30.068Z,994.49
2019-03-08T04:09:30.047Z,994.63
2019-03-08T04:10:30.024Z,994.34
2019-03-08T04:11:30.003Z,994.51
2019-03-08T04:12:29.981Z,994.43
2019-03-08T04:13:29.965Z,994.49
2019-03-08T04:14:29.942Z,994.39
2019-03-08T04:15:29.926Z,994.48
2019-03-08T04:16:29.896Z,994.48
2019-03-08T04:17:29.877Z,994.59
2019-03-08T04:18:29.856Z,994.32
2019-03-08T04:19:29.837Z,994.42
2019-03-08T04:20:29.817Z,994.47
2019-03-08T04:21:29.797Z,994.49
2019-03-08T04:22:29.773Z,994.44
2019-03-08T04:23:29.749Z,994.41
2019-03-08T04:24:29.727Z,994.26
2019-03-08T04:25:29.705Z,994.35
2019-03-08T04:26:29.685Z,994.35
2019-03-08T04:27:29.667Z,994.35
2019-03-08T04:28:29.645Z,994.35
2019-03-08T04:29:29.628Z,994.36
2019-03-08T04:30:29.602Z,994.23
2019-03-08T04:31:29.585Z,994.41
2019-03-08T04:32:29.559Z,994.27
2019-03-08T04:33:29.538Z,994.36
2019-03-08T04:34:29.514Z,994.30
2019-03-08T04:35:29.493Z,994.40
2019-03-08T04:36:30.338Z,994.34
2019-03-08T04:37:29.458Z,994.48
2019-03-08T04:38:29.430Z,994.42
2019-03-08T04:39:29.412Z,994.55
2019-03-08T04:40:29.391Z,994.45
2019-03-08T04:41:29.369Z,994.44
2019-03-08T04:42:29.345Z,994.42
2019-03-08T04:43:29.325Z,994.52
2019-03-08T04:44:29.303Z,994.31
2019-03-08T04:45:29.290Z,994.32
2019-03-08T04:46:29.261Z,994.27
2019-03-08T04:47:29.243Z,994.31
2019-03-08T04:48:29.220Z,994.52
2019-03-08T04:49:29.199Z,994.17
2019-03-08T04:50:29.173Z,994.33
2019-03-08T04:51:29.158Z,994.22
2019-03-08T04:52:29.134Z,994.10
2019-03-08T04:53:29.112Z,994.15
2019-03-08T04:54:29.094Z,994.13
2019-03-08T04:55:29.067Z,994.23
2019-03-08T04:56:29.047Z,994.12
2019-03-08T04:57:29.026Z,994.49
2019-03-08T04:58:29.009Z,994.25
2019-03-08T04:59:28.986Z,994.24
2019-03-08T05:00:28.970Z,994.15
2019-03-08T05:01:28.942Z,994.32
2019-03-08T05:02:28.923Z,994.40
2019-03-08T05:03:28.900Z,994.56
2019-03-08T05:04:28.876Z,994.20
2019-03-08T05:05:28.859Z,994.42
2019-03-08T05:06:28.838Z,994.25
2019-03-08T05:07:28.812Z,994.36
2019-03-08T05:08:28.795Z,994.21
2019-03-08T05:09:28.780Z,994.31
2019-03-08T05:10:28.752Z,994.30
2019-03-08T05:11:28.728Z,994.20
2019-03-08T05:12:28.710Z,994.16
2019-03-08T05:13:28.688Z,994.17
2019-03-08T05:14:28.669Z,994.11
2019-03-08T05:15:28.644Z,994.07
2019-03-08T05:16:28.624Z,994.22
2019-03-08T05:17:28.604Z,994.08
2019-03-08T05:18:28.582Z,994.24
2019-03-08T05:19:28.558Z,994.20
2019-03-08T05:20:28.540Z,994.47
2019-03-08T05:21:28.517Z,994.09
2019-03-08T05:22:28.498Z,994.21
2019-03-08T05:23:28.481Z,994.34
2019-03-08T05:24:28.460Z,994.17
2019-03-08T05:25:28.430Z,994.25
2019-03-08T05:26:28.418Z,994.10
2019-03-08T05:27:28.396Z,994.13
2019-03-08T05:28:28.371Z,994.05
2019-03-08T05:29:28.347Z,994.17
2019-03-08T05:30:28.328Z,994.12
2019-03-08T05:31:28.312Z,994.27
2019-03-08T05:32:28.288Z,994.11
2019-03-08T05:33:28.266Z,994.09
2019-03-08T05:34:28.245Z,994.11
2019-03-08T05:35:28.224Z,994.16
2019-03-08T05:36:28.203Z,994.03
2019-03-08T05:37:28.182Z,994.15
2019-03-08T05:38:28.158Z,994.21
2019-03-08T05:39:28.137Z,994.11
2019-03-08T05:40:28.117Z,994.22
2019-03-08T05:41:28.098Z,994.11
2019-03-08T05:42:28.082Z,994.27
2019-03-08T05:43:28.054Z,994.18
2019-03-08T05:44:28.030Z,994.36
2019-03-08T05:45:28.012Z,994.26
2019-03-08T05:46:28.031Z,994.40
2019-03-08T05:47:27.976Z,994.16
2019-03-08T05:48:27.959Z,994.19
2019-03-08T05:49:27.929Z,994.47
2019-03-08T05:50:27.904Z,994.20
2019-03-08T05:51:27.882Z,994.13
2019-03-08T05:52:27.870Z,994.18
2019-03-08T05:53:27.842Z,994.26
2019-03-08T05:54:27.822Z,994.41
2019-03-08T05:55:27.806Z,994.21
2019-03-08T05:56:27.782Z,994.44
2019-03-08T05:57:27.764Z,994.37
2019-03-08T05:58:27.738Z,994.18
2019-03-08T05:59:27.719Z,994.20
2019-03-08T06:00:32.121Z,994.30
2019-03-08T06:01:27.672Z,994.24
2019-03-08T06:02:27.654Z,994.26
2019-03-08T06:03:27.633Z,994.33
2019-03-08T06:04:27.620Z,994.30
2019-03-08T06:05:27.594Z,994.31
2019-03-08T06:06:27.576Z,994.36
2019-03-08T06:07:36.560Z,994.43
2019-03-08T06:08:36.534Z,994.69
2019-03-08T06:09:36.516Z,994.26
2019-03-08T06:10:36.497Z,994.47
2019-03-08T06:11:36.477Z,994.46
2019-03-08T06:12:36.453Z,994.49
2019-03-08T06:13:36.435Z,994.37
2019-03-08T06:14:36.415Z,994.37
2019-03-08T06:15:36.394Z,994.44
2019-03-08T06:16:36.371Z,994.60
2019-03-08T06:17:36.345Z,994.37
2019-03-08T06:18:36.330Z,994.55
2019-03-08T06:19:36.309Z,994.37
2019-03-08T06:20:36.287Z,994.67
2019-03-08T06:21:36.270Z,994.47
2019-03-08T06:22:36.259Z,994.42
2019-03-08T06:23:36.221Z,994.48
2019-03-08T06:24:36.202Z,994.39
2019-03-08T06:25:36.185Z,994.50
2019-03-08T06:26:36.160Z,994.64
2019-03-08T06:27:36.143Z,994.55
2019-03-08T06:28:36.115Z,994.65
2019-03-08T06:29:36.096Z,994.59
2019-03-08T06:30:36.075Z,994.63
2019-03-08T06:31:36.053Z,994.47
2019-03-08T06:32:36.035Z,994.57
2019-03-08T06:33:36.010Z,994.77
2019-03-08T06:34:35.995Z,994.59
2019-03-08T06:35:35.978Z,994.49
2019-03-08T06:36:35.950Z,994.60
2019-03-08T06:37:35.933Z,994.60
2019-03-08T06:38:35.913Z,994.41
2019-03-08T06:39:35.891Z,994.65
2019-03-08T06:40:35.868Z,994.76
2019-03-08T06:41:35.847Z,994.86
2019-03-08T06:42:35.826Z,994.92
2019-03-08T06:43:35.809Z,994.68
2019-03-08T06:44:35.800Z,994.79
2019-03-08T06:45:35.764Z,994.90
2019-03-08T06:46:35.742Z,994.80
2019-03-08T06:47:35.721Z,994.93
2019-03-08T06:48:35.703Z,994.76
2019-03-08T06:49:35.680Z,995.07
2019-03-08T06:50:35.663Z,995.05
2019-03-08T06:51:35.683Z,994.92
2019-03-08T06:52:35.619Z,994.93
2019-03-08T06:53:35.597Z,994.93
2019-03-08T06:54:35.579Z,994.86
2019-03-08T06:55:35.560Z,994.82
2019-03-08T06:56:35.539Z,995.09
2019-03-08T06:57:35.519Z,994.90
2019-03-08T06:58:35.493Z,994.98
2019-03-08T06:59:35.477Z,995.03
2019-03-08T07:00:35.467Z,995.02
2019-03-08T07:01:35.441Z,995.26
2019-03-08T07:02:35.411Z,995.13
2019-03-08T07:03:35.398Z,995.19
2019-03-08T07:04:35.423Z,995.18
2019-03-08T07:05:35.349Z,995.24
2019-03-08T07:06:35.333Z,995.11
2019-03-08T07:07:35.312Z,995.22
2019-03-08T07:08:35.291Z,995.49
2019-03-08T07:09:35.269Z,995.23
2019-03-08T07:10:35.246Z,995.35
2019-03-08T07:11:35.236Z,995.33
2019-03-08T07:12:35.209Z,995.31
2019-03-08T07:13:35.197Z,995.35
2019-03-08T07:14:35.168Z,995.37
2019-03-08T07:15:35.152Z,995.45
2019-03-08T07:16:35.121Z,995.37
2019-03-08T07:17:35.101Z,995.44
2019-03-08T07:18:35.077Z,995.31
2019-03-08T07:19:40.821Z,995.46
2019-03-08T07:20:35.040Z,995.58
2019-03-08T07:21:35.020Z,995.69
2019-03-08T07:22:34.999Z,995.46
2019-03-08T07:23:34.978Z,995.61
2019-03-08T07:24:34.959Z,995.66
2019-03-08T07:25:34.936Z,995.59
2019-03-08T07:26:34.917Z,995.62
2019-03-08T07:27:34.899Z,995.47
2019-03-08T07:28:34.874Z,995.64
2019-03-08T07:29:34.854Z,996.00
2019-03-08T07:30:34.834Z,995.67
2019-03-08T07:31:34.812Z,995.63
2019-03-08T07:32:34.794Z,995.72
2019-03-08T07:33:34.775Z,995.77
2019-03-08T07:34:34.755Z,995.76
2019-03-08T07:35:34.727Z,995.89
2019-03-08T07:36:34.711Z,995.74
2019-03-08T07:37:34.690Z,995.86
2019-03-08T07:38:34.665Z,995.87
2019-03-08T07:39:34.655Z,995.81
2019-03-08T07:40:34.627Z,995.94
2019-03-08T07:41:34.608Z,996.12
2019-03-08T07:42:34.591Z,995.85
2019-03-08T07:43:34.563Z,995.95
2019-03-08T07:44:34.551Z,996.03
2019-03-08T07:45:34.522Z,995.95
2019-03-08T07:46:34.502Z,995.84
2019-03-08T07:47:34.482Z,996.02
2019-03-08T07:48:34.463Z,996.07
2019-03-08T07:49:34.446Z,996.10
2019-03-08T07:50:34.420Z,996.09
2019-03-08T07:51:34.405Z,996.32
2019-03-08T07:52:34.384Z,996.15
2019-03-08T07:53:34.362Z,996.08
2019-03-08T07:54:34.339Z,996.34
2019-03-08T07:55:34.321Z,996.25
2019-03-08T07:56:34.297Z,996.40
2019-03-08T07:57:34.277Z,996.37
2019-03-08T07:58:34.257Z,996.46
2019-03-08T07:59:34.241Z,996.30
2019-03-08T08:00:34.216Z,996.57
2019-03-08T08:01:34.191Z,996.37
2019-03-08T08:02:34.188Z,996.62
2019-03-08T08:03:34.151Z,996.46
2019-03-08T08:04:34.133Z,996.68
2019-03-08T08:05:34.109Z,996.66
2019-03-08T08:06:34.091Z,996.52
2019-03-08T08:07:34.075Z,996.65
2019-03-08T08:08:34.054Z,996.59
2019-03-08T08:09:34.030Z,996.62
2019-03-08T08:10:34.010Z,996.66
2019-03-08T08:11:33.994Z,996.78
2019-03-08T08:12:33.969Z,996.72
2019-03-08T08:13:33.950Z,996.72
2019-03-08T08:14:39.499Z,996.61
2019-03-08T08:15:33.919Z,996.72
2019-03-08T08:16:33.890Z,996.83
2019-03-08T08:17:33.867Z,996.82
2019-03-08T08:18:33.846Z,996.78
2019-03-08T08:19:33.825Z,996.96
2019-03-08T08:20:33.808Z,996.84
2019-03-08T08:21:33.785Z,996.94
2019-03-08T08:22:33.766Z,997.00
2019-03-08T08:23:34.496Z,996.99
2019-03-08T08:24:33.727Z,997.11
2019-03-08T08:25:36.729Z,996.84
2019-03-08T08:26:33.684Z,997.06
2019-03-08T08:27:33.664Z,997.12
2019-03-08T08:28:33.659Z,997.14
2019-03-08T08:29:35.184Z,996.95
2019-03-08T08:30:33.603Z,997.21
2019-03-08T08:31:33.584Z,997.28
2019-03-08T08:32:33.568Z,997.27
2019-03-08T08:33:33.542Z,997.31
2019-03-08T08:34:33.534Z,997.12
2019-03-08T08:35:33.509Z,997.17
2019-03-08T08:36:33.478Z,997.43
2019-03-08T08:37:33.460Z,997.51
2019-03-08T08:38:33.444Z,997.40
2019-03-08T08:39:33.426Z,997.43
2019-03-08T08:40:33.398Z,997.35
2019-03-08T08:41:33.376Z,997.52
2019-03-08T08:42:33.358Z,997.51
2019-03-08T08:43:33.335Z,997.32
2019-03-08T08:44:33.313Z,997.36
2019-03-08T08:45:33.300Z,997.50
2019-03-08T08:46:33.275Z,997.43
2019-03-08T08:47:33.258Z,997.55
2019-03-08T08:48:33.237Z,997.52
2019-03-08T08:49:33.222Z,997.59
2019-03-08T08:50:33.195Z,997.60
2019-03-08T08:51:33.180Z,997.59
2019-03-08T08:52:33.156Z,997.64
2019-03-08T08:53:33.135Z,997.78
2019-03-08T08:54:33.119Z,997.80
2019-03-08T08:55:33.103Z,998.06
2019-03-08T08:56:33.085Z,997.84
2019-03-08T08:57:33.058Z,997.69
2019-03-08T08:58:33.041Z,997.90
2019-03-08T08:59:33.020Z,997.84
2019-03-08T09:00:32.995Z,997.85
2019-03-08T09:01:32.981Z,997.92
2019-03-08T09:02:32.962Z,997.83
2019-03-08T09:03:32.941Z,998.04
2019-03-08T09:04:32.920Z,997.88
2019-03-08T09:05:32.905Z,997.93
2019-03-08T09:06:32.884Z,998.11
2019-03-08T09:07:32.863Z,997.91
2019-03-08T09:08:32.852Z,997.93
2019-03-08T09:09:32.821Z,997.89
2019-03-08T09:10:32.802Z,998.04
2019-03-08T09:11:32.783Z,998.08
2019-03-08T09:12:32.757Z,998.38
2019-03-08T09:13:32.744Z,998.13
2019-03-08T09:14:32.718Z,998.35
2019-03-08T09:15:32.704Z,998.22
2019-03-08T09:16:32.677Z,998.26
2019-03-08T09:17:32.657Z,998.45
2019-03-08T09:18:32.638Z,998.30
2019-03-08T09:19:32.623Z,998.18
2019-03-08T09:20:32.605Z,998.27
2019-03-08T09:21:32.581Z,998.63
2019-03-08T09:22:32.569Z,998.23
2019-03-08T09:23:32.540Z,998.42
2019-03-08T09:24:32.523Z,998.30
2019-03-08T09:25:32.504Z,998.29
2019-03-08T09:26:33.136Z,998.41
2019-03-08T09:27:32.462Z,998.44
2019-03-08T09:28:32.442Z,998.42
2019-03-08T09:29:40.810Z,998.41
2019-03-08T09:30:32.399Z,998.47
2019-03-08T09:31:32.396Z,998.41
2019-03-08T09:32:32.364Z,998.51
2019-03-08T09:33:32.356Z,998.54
2019-03-08T09:34:32.343Z,998.55
2019-03-08T09:35:32.306Z,998.54
2019-03-08T09:36:32.287Z,998.68
2019-03-08T09:37:32.263Z,998.67
2019-03-08T09:38:32.246Z,998.70
2019-03-08T09:39:32.222Z,998.73
2019-03-08T09:40:32.205Z,998.73
2019-03-08T09:41:32.187Z,998.72
2019-03-08T09:42:32.166Z,998.82
2019-03-08T09:43:32.155Z,998.84
2019-03-08T09:44:32.129Z,998.85
2019-03-08T09:45:32.103Z,999.04
2019-03-08T09:46:32.084Z,998.89
2019-03-08T09:47:32.062Z,998.96
2019-03-08T09:48:32.043Z,998.94
2019-03-08T09:49:32.029Z,998.96
2019-03-08T09:50:32.006Z,999.07
2019-03-08T09:51:31.992Z,999.20
2019-03-08T09:52:32.598Z,999.27
2019-03-08T09:53:31.943Z,999.14
2019-03-08T09:54:31.928Z,999.27
2019-03-08T09:55:31.904Z,999.33
2019-03-08T09:56:31.885Z,999.19
2019-03-08T09:57:31.868Z,999.19
2019-03-08T09:58:31.848Z,999.33
2019-03-08T09:59:31.825Z,999.37
2019-03-08T10:00:31.805Z,999.43
2019-03-08T10:01:31.788Z,999.58
2019-03-08T10:02:31.768Z,999.29
2019-03-08T10:03:31.740Z,999.72
2019-03-08T10:04:31.721Z,999.53
2019-03-08T10:05:31.700Z,999.60
2019-03-08T10:06:31.680Z,999.45
2019-03-08T10:07:31.665Z,999.44
2019-03-08T10:08:31.642Z,999.57
2019-03-08T10:09:31.624Z,999.62
2019-03-08T10:10:31.598Z,999.71
2019-03-08T10:11:31.582Z,999.77
2019-03-08T10:12:31.561Z,999.63
2019-03-08T10:13:31.542Z,999.67
2019-03-08T10:14:31.517Z,999.67
2019-03-08T10:15:31.501Z,999.81
2019-03-08T10:16:31.479Z,999.85
2019-03-08T10:17:31.454Z,999.95
2019-03-08T10:18:31.438Z,999.81
2019-03-08T10:19:31.423Z,1000.00
2019-03-08T10:20:31.398Z,999.80
2019-03-08T10:21:31.375Z,999.94
2019-03-08T10:22:31.357Z,999.94
2019-03-08T10:23:31.331Z,999.98
2019-03-08T10:24:31.314Z,1000.03
2019-03-08T10:25:31.290Z,999.90
2019-03-08T10:26:31.271Z,1000.17
2019-03-08T10:27:37.730Z,1000.17
2019-03-08T10:28:31.224Z,1000.01
2019-03-08T10:29:31.213Z,1000.06
2019-03-08T10:30:31.976Z,1000.08
2019-03-08T10:31:31.166Z,1000.10
2019-03-08T10:32:37.279Z,1000.05
2019-03-08T10:33:31.123Z,1000.07
2019-03-08T10:34:31.106Z,1000.14
2019-03-08T10:35:31.081Z,1000.16
2019-03-08T10:36:31.061Z,1000.27
2019-03-08T10:37:31.038Z,1000.20
2019-03-08T10:38:31.020Z,1000.25
2019-03-08T10:39:31.000Z,1000.28
2019-03-08T10:40:30.976Z,1000.36
2019-03-08T10:41:30.956Z,1000.46
2019-03-08T10:42:30.950Z,1000.34
2019-03-08T10:43:30.911Z,1000.32
2019-03-08T10:44:30.902Z,1000.80
2019-03-08T10:45:30.870Z,1000.60
2019-03-08T10:46:30.846Z,1000.80
2019-03-08T10:47:31.208Z,1000.54
2019-03-08T10:48:30.812Z,1000.70
2019-03-08T10:49:30.794Z,1000.82
2019-03-08T10:50:30.772Z,1000.56
2019-03-08T10:51:30.751Z,1000.65
2019-03-08T10:52:30.729Z,1000.75
2019-03-08T10:53:30.702Z,1000.72
2019-03-08T10:54:30.688Z,1000.76
2019-03-08T10:55:30.662Z,1001.03
2019-03-08T10:56:30.644Z,1000.77
2019-03-08T10:57:30.624Z,1000.83
2019-03-08T10:58:30.612Z,1000.85
2019-03-08T10:59:31.401Z,1000.95
2019-03-08T11:00:30.567Z,1000.89
2019-03-08T11:01:30.542Z,1000.86
2019-03-08T11:02:30.520Z,1000.94
2019-03-08T11:03:30.501Z,1001.32
2019-03-08T11:04:30.480Z,1000.95
2019-03-08T11:05:30.458Z,1000.96
2019-03-08T11:06:30.444Z,1001.18
2019-03-08T11:07:30.419Z,1000.98
2019-03-08T11:08:30.411Z,1000.97
2019-03-08T11:09:30.380Z,1001.15
2019-03-08T11:10:30.382Z,1001.05
2019-03-08T11:11:30.343Z,1001.01
2019-03-08T11:12:30.327Z,1001.02
2019-03-08T11:13:30.301Z,1001.32
2019-03-08T11:14:30.285Z,1001.11
2019-03-08T11:15:30.275Z,1001.19
2019-03-08T11:16:30.270Z,1001.19
2019-03-08T11:17:30.223Z,1001.14
2019-03-08T11:18:30.204Z,1001.34
2019-03-08T11:19:30.193Z,1001.41
2019-03-08T11:20:30.164Z,1001.53
2019-03-08T11:21:31.147Z,1001.65
2019-03-08T11:22:30.130Z,1001.60
2019-03-08T11:23:30.104Z,1001.54
2019-03-08T11:24:30.083Z,1001.62
2019-03-08T11:25:34.948Z,1001.61
2019-03-08T11:26:30.043Z,1001.58
2019-03-08T11:27:30.022Z,1001.71
2019-03-08T11:28:30.007Z,1001.65
2019-03-08T11:29:29.987Z,1001.70
2019-03-08T11:30:29.965Z,1001.66
2019-03-08T11:31:29.948Z,1001.71
2019-03-08T11:32:29.931Z,1001.71
2019-03-08T11:33:29.903Z,1001.73
2019-03-08T11:34:29.883Z,1001.75
2019-03-08T11:35:29.876Z,1001.84
2019-03-08T11:36:29.839Z,1001.99
2019-03-08T11:37:29.823Z,1001.92
2019-03-08T11:38:29.797Z,1001.86
2019-03-08T11:39:29.779Z,1001.90
2019-03-08T11:40:29.765Z,1002.03
2019-03-08T11:41:29.744Z,1001.99
2019-03-08T11:42:30.232Z,1002.07
2019-03-08T11:43:29.697Z,1001.96
2019-03-08T11:44:29.676Z,1002.03
2019-03-08T11:45:29.658Z,1002.08
2019-03-08T11:46:29.630Z,1002.14
2019-03-08T11:47:29.615Z,1002.20
2019-03-08T11:48:29.589Z,1002.20
2019-03-08T11:49:29.575Z,1002.09
2019-03-08T11:50:29.551Z,1002.09
2019-03-08T11:51:29.532Z,1002.21
2019-03-08T11:52:29.507Z,1002.27
2019-03-08T11:53:29.490Z,1002.28
2019-03-08T11:54:29.715Z,1002.19
2019-03-08T11:55:29.446Z,1002.16
2019-03-08T11:56:29.439Z,1002.19
2019-03-08T11:57:29.409Z,1002.18
2019-03-08T11:58:29.389Z,1002.22
2019-03-08T11:59:29.368Z,1002.21
2019-03-08T12:00:29.341Z,1002.26
2019-03-08T12:01:29.324Z,1002.22
2019-03-08T12:02:37.620Z,1002.25
2019-03-08T12:03:29.287Z,1002.35
2019-03-08T12:04:29.256Z,1002.36
2019-03-08T12:05:29.238Z,1002.41
2019-03-08T12:06:29.215Z,1002.53
2019-03-08T12:07:29.199Z,1002.69
2019-03-08T12:08:29.177Z,1002.66
2019-03-08T12:09:29.161Z,1002.53
2019-03-08T12:10:29.132Z,1002.53
2019-03-08T12:11:29.111Z,1002.69
2019-03-08T12:12:29.093Z,1002.69
2019-03-08T12:13:29.073Z,1002.65
2019-03-08T12:14:29.056Z,1002.65
2019-03-08T12:15:29.029Z,1002.69
2019-03-08T12:16:29.009Z,1002.63
2019-03-08T12:17:28.993Z,1002.61
2019-03-08T12:18:28.966Z,1002.64
2019-03-08T12:19:28.952Z,1002.71
2019-03-08T12:20:28.932Z,1002.65
2019-03-08T12:21:28.918Z,1002.67
2019-03-08T12:22:28.892Z,1002.66
2019-03-08T12:23:28.876Z,1002.65
2019-03-08T12:24:28.851Z,1002.72